Aksa, Russia
Current Conditions -  °F | °C
As of 5:30 AM on Friday 24 Oct 2014 (Local Time) from UIAA Reporting Station
Clear Clear  
Wind Chill: 19°   Ceiling: Unl
Heat Index: 19°   Visibility: 6mi
Dew Point: 16°   Wind: 2mph
Humidity: 86%   Direction: NA
Pressure: 29.8"   Gusts: NA
Location:  50.27°N, 113.27°E
Report Text: UIAA 232030Z VRB01MPS 9999 SKC M07/M09 Q1009 NOSIG RMK QFE69829CLRD70
Loading
Personal Weather Stations






























Interactive Weather Map New forecast layout! Learn more

10-Day Weather Forecast

Advertisements
Track Severe Weather on mobile